sensor_id;sensor_type;location;lat;lon;timestamp;P1;durP1;ratioP1;P2;durP2;ratioP2
59876;SDS011;45749;51.140;17.184;2022-08-14T00:00:07;15.95;;;14.35;;
59876;SDS011;45749;51.140;17.184;2022-08-14T00:02:38;15.53;;;14.07;;
59876;SDS011;45749;51.140;17.184;2022-08-14T00:05:06;16.02;;;14.43;;
59876;SDS011;45749;51.140;17.184;2022-08-14T00:07:36;16.02;;;14.43;;
59876;SDS011;45749;51.140;17.184;2022-08-14T00:10:03;14.90;;;13.40;;
59876;SDS011;45749;51.140;17.184;2022-08-14T00:12:34;14.47;;;12.98;;
59876;SDS011;45749;51.140;17.184;2022-08-14T00:15:06;14.28;;;12.85;;
59876;SDS011;45749;51.140;17.184;2022-08-14T00:17:45;16.20;;;13.25;;
59876;SDS011;45749;51.140;17.184;2022-08-14T00:20:12;14.65;;;13.15;;
59876;SDS011;45749;51.140;17.184;2022-08-14T00:22:39;15.25;;;13.75;;
59876;SDS011;45749;51.140;17.184;2022-08-14T00:25:06;14.25;;;12.82;;
59876;SDS011;45749;51.140;17.184;2022-08-14T00:27:34;16.37;;;13.60;;
59876;SDS011;45749;51.140;17.184;2022-08-14T00:30:00;15.15;;;13.10;;
59876;SDS011;45749;51.140;17.184;2022-08-14T00:32:26;14.83;;;13.25;;
59876;SDS011;45749;51.140;17.184;2022-08-14T00:34:52;16.60;;;13.93;;
59876;SDS011;45749;51.140;17.184;2022-08-14T00:37:18;15.05;;;12.98;;
59876;SDS011;45749;51.140;17.184;2022-08-14T00:39:44;15.90;;;13.50;;
59876;SDS011;45749;51.140;17.184;2022-08-14T00:42:10;15.70;;;14.30;;
59876;SDS011;45749;51.140;17.184;2022-08-14T00:44:37;15.18;;;13.58;;
59876;SDS011;45749;51.140;17.184;2022-08-14T00:47:03;16.50;;;13.70;;
59876;SDS011;45749;51.140;17.184;2022-08-14T00:49:33;15.08;;;13.62;;
59876;SDS011;45749;51.140;17.184;2022-08-14T00:52:00;17.32;;;13.88;;
59876;SDS011;45749;51.140;17.184;2022-08-14T00:54:27;14.95;;;13.38;;
59876;SDS011;45749;51.140;17.184;2022-08-14T00:56:53;13.28;;;11.97;;
59876;SDS011;45749;51.140;17.184;2022-08-14T00:59:19;15.63;;;13.93;;
59876;SDS011;45749;51.140;17.184;2022-08-14T01:01:45;14.45;;;13.03;;
59876;SDS011;45749;51.140;17.184;2022-08-14T01:04:12;15.83;;;12.37;;
59876;SDS011;45749;51.140;17.184;2022-08-14T01:06:39;14.35;;;12.85;;
59876;SDS011;45749;51.140;17.184;2022-08-14T01:09:05;14.75;;;13.30;;
59876;SDS011;45749;51.140;17.184;2022-08-14T01:11:31;15.75;;;14.25;;
59876;SDS011;45749;51.140;17.184;2022-08-14T01:13:57;15.03;;;13.53;;
59876;SDS011;45749;51.140;17.184;2022-08-14T01:16:26;13.95;;;12.58;;
59876;SDS011;45749;51.140;17.184;2022-08-14T01:18:54;15.72;;;12.58;;
59876;SDS011;45749;51.140;17.184;2022-08-14T01:21:39;13.88;;;12.47;;
59876;SDS011;45749;51.140;17.184;2022-08-14T01:24:07;14.50;;;12.90;;
59876;SDS011;45749;51.140;17.184;2022-08-14T01:26:34;14.63;;;13.13;;
59876;SDS011;45749;51.140;17.184;2022-08-14T01:29:02;14.55;;;13.15;;
59876;SDS011;45749;51.140;17.184;2022-08-14T01:31:31;13.05;;;11.70;;
59876;SDS011;45749;51.140;17.184;2022-08-14T01:34:03;14.93;;;13.30;;
59876;SDS011;45749;51.140;17.184;2022-08-14T01:36:31;13.22;;;11.93;;
59876;SDS011;45749;51.140;17.184;2022-08-14T01:38:59;15.08;;;12.15;;
59876;SDS011;45749;51.140;17.184;2022-08-14T01:41:25;13.30;;;11.90;;
59876;SDS011;45749;51.140;17.184;2022-08-14T01:43:53;14.05;;;12.63;;
59876;SDS011;45749;51.140;17.184;2022-08-14T01:46:25;14.50;;;13.00;;
59876;SDS011;45749;51.140;17.184;2022-08-14T01:48:54;13.93;;;11.38;;
59876;SDS011;45749;51.140;17.184;2022-08-14T01:51:21;13.32;;;11.63;;
59876;SDS011;45749;51.140;17.184;2022-08-14T01:53:50;12.75;;;11.45;;
59876;SDS011;45749;51.140;17.184;2022-08-14T01:56:25;14.20;;;12.90;;
59876;SDS011;45749;51.140;17.184;2022-08-14T01:59:00;14.73;;;12.53;;
59876;SDS011;45749;51.140;17.184;2022-08-14T02:01:29;12.18;;;10.82;;
59876;SDS011;45749;51.140;17.184;2022-08-14T02:03:55;12.82;;;11.40;;
59876;SDS011;45749;51.140;17.184;2022-08-14T02:06:21;13.85;;;12.45;;
59876;SDS011;45749;51.140;17.184;2022-08-14T02:08:47;13.08;;;11.73;;
59876;SDS011;45749;51.140;17.184;2022-08-14T02:11:14;13.62;;;12.10;;
59876;SDS011;45749;51.140;17.184;2022-08-14T02:13:46;12.88;;;11.57;;
59876;SDS011;45749;51.140;17.184;2022-08-14T02:16:26;13.03;;;11.73;;
59876;SDS011;45749;51.140;17.184;2022-08-14T02:18:56;11.93;;;10.58;;
59876;SDS011;45749;51.140;17.184;2022-08-14T02:21:26;13.40;;;12.00;;
59876;SDS011;45749;51.140;17.184;2022-08-14T02:23:56;13.80;;;12.13;;
59876;SDS011;45749;51.140;17.184;2022-08-14T02:26:28;13.28;;;11.88;;
59876;SDS011;45749;51.140;17.184;2022-08-14T02:28:54;14.98;;;13.43;;
59876;SDS011;45749;51.140;17.184;2022-08-14T02:31:24;13.50;;;12.18;;
59876;SDS011;45749;51.140;17.184;2022-08-14T02:33:54;12.85;;;11.35;;
59876;SDS011;45749;51.140;17.184;2022-08-14T02:36:20;14.85;;;12.73;;
59876;SDS011;45749;51.140;17.184;2022-08-14T02:38:46;15.20;;;12.03;;
59876;SDS011;45749;51.140;17.184;2022-08-14T02:41:14;14.53;;;13.03;;
59876;SDS011;45749;51.140;17.184;2022-08-14T02:43:40;14.73;;;12.60;;
59876;SDS011;45749;51.140;17.184;2022-08-14T02:46:07;13.98;;;12.68;;
59876;SDS011;45749;51.140;17.184;2022-08-14T02:48:36;13.13;;;11.83;;
59876;SDS011;45749;51.140;17.184;2022-08-14T02:51:12;13.13;;;11.83;;
59876;SDS011;45749;51.140;17.184;2022-08-14T02:53:38;14.47;;;12.98;;
59876;SDS011;45749;51.140;17.184;2022-08-14T02:56:10;13.58;;;12.30;;
59876;SDS011;45749;51.140;17.184;2022-08-14T02:58:42;14.18;;;12.80;;
59876;SDS011;45749;51.140;17.184;2022-08-14T03:01:11;14.15;;;12.75;;
59876;SDS011;45749;51.140;17.184;2022-08-14T03:03:39;15.23;;;13.68;;
59876;SDS011;45749;51.140;17.184;2022-08-14T03:06:07;14.30;;;12.70;;
59876;SDS011;45749;51.140;17.184;2022-08-14T03:08:35;15.32;;;13.72;;
59876;SDS011;45749;51.140;17.184;2022-08-14T03:11:03;16.23;;;14.63;;
59876;SDS011;45749;51.140;17.184;2022-08-14T03:13:34;14.78;;;13.28;;
59876;SDS011;45749;51.140;17.184;2022-08-14T03:16:10;16.05;;;14.45;;
59876;SDS011;45749;51.140;17.184;2022-08-14T03:18:36;18.27;;;14.05;;
59876;SDS011;45749;51.140;17.184;2022-08-14T03:21:08;18.92;;;15.03;;
59876;SDS011;45749;51.140;17.184;2022-08-14T03:23:40;18.55;;;16.67;;
59876;SDS011;45749;51.140;17.184;2022-08-14T03:26:14;17.37;;;15.43;;
59876;SDS011;45749;51.140;17.184;2022-08-14T03:28:50;17.82;;;14.68;;
59876;SDS011;45749;51.140;17.184;2022-08-14T03:33:43;19.35;;;15.85;;
59876;SDS011;45749;51.140;17.184;2022-08-14T03:36:10;15.78;;;14.07;;
59876;SDS011;45749;51.140;17.184;2022-08-14T03:38:39;16.87;;;15.18;;
59876;SDS011;45749;51.140;17.184;2022-08-14T03:41:14;16.07;;;14.38;;
59876;SDS011;45749;51.140;17.184;2022-08-14T03:43:47;17.20;;;15.55;;
59876;SDS011;45749;51.140;17.184;2022-08-14T03:46:18;20.15;;;15.28;;
59876;SDS011;45749;51.140;17.184;2022-08-14T03:48:46;15.95;;;13.85;;
59876;SDS011;45749;51.140;17.184;2022-08-14T03:51:13;18.52;;;14.28;;
59876;SDS011;45749;51.140;17.184;2022-08-14T03:53:44;16.93;;;15.13;;
59876;SDS011;45749;51.140;17.184;2022-08-14T03:56:11;16.85;;;14.60;;
59876;SDS011;45749;51.140;17.184;2022-08-14T03:58:42;17.15;;;15.35;;
59876;SDS011;45749;51.140;17.184;2022-08-14T04:01:14;16.45;;;14.75;;
59876;SDS011;45749;51.140;17.184;2022-08-14T04:03:49;16.67;;;14.58;;
59876;SDS011;45749;51.140;17.184;2022-08-14T04:06:19;20.23;;;16.70;;
59876;SDS011;45749;51.140;17.184;2022-08-14T04:08:46;16.55;;;14.78;;
59876;SDS011;45749;51.140;17.184;2022-08-14T04:11:14;16.00;;;14.40;;
59876;SDS011;45749;51.140;17.184;2022-08-14T04:13:43;16.57;;;14.45;;
59876;SDS011;45749;51.140;17.184;2022-08-14T04:16:11;15.98;;;14.35;;
59876;SDS011;45749;51.140;17.184;2022-08-14T04:18:45;15.85;;;14.15;;
59876;SDS011;45749;51.140;17.184;2022-08-14T04:21:15;16.17;;;14.58;;
59876;SDS011;45749;51.140;17.184;2022-08-14T04:23:42;15.65;;;13.93;;
59876;SDS011;45749;51.140;17.184;2022-08-14T04:26:12;14.95;;;13.45;;
59876;SDS011;45749;51.140;17.184;2022-08-14T04:28:43;16.15;;;14.45;;
59876;SDS011;45749;51.140;17.184;2022-08-14T04:31:08;16.48;;;14.78;;
59876;SDS011;45749;51.140;17.184;2022-08-14T04:33:35;16.00;;;14.35;;
59876;SDS011;45749;51.140;17.184;2022-08-14T04:36:01;15.83;;;14.23;;
59876;SDS011;45749;51.140;17.184;2022-08-14T04:38:28;16.10;;;14.50;;
59876;SDS011;45749;51.140;17.184;2022-08-14T04:41:13;15.23;;;13.72;;
59876;SDS011;45749;51.140;17.184;2022-08-14T04:43:57;14.98;;;13.38;;
59876;SDS011;45749;51.140;17.184;2022-08-14T04:46:24;16.35;;;13.13;;
59876;SDS011;45749;51.140;17.184;2022-08-14T04:48:52;14.05;;;12.65;;
59876;SDS011;45749;51.140;17.184;2022-08-14T04:51:19;15.68;;;13.28;;
59876;SDS011;45749;51.140;17.184;2022-08-14T04:53:52;15.60;;;13.90;;
59876;SDS011;45749;51.140;17.184;2022-08-14T04:56:21;16.67;;;14.45;;
59876;SDS011;45749;51.140;17.184;2022-08-14T04:58:50;15.23;;;13.58;;
59876;SDS011;45749;51.140;17.184;2022-08-14T05:01:21;15.20;;;13.65;;
59876;SDS011;45749;51.140;17.184;2022-08-14T05:03:49;15.43;;;13.80;;
59876;SDS011;45749;51.140;17.184;2022-08-14T05:06:17;14.95;;;13.45;;
59876;SDS011;45749;51.140;17.184;2022-08-14T05:08:43;15.85;;;14.28;;
59876;SDS011;45749;51.140;17.184;2022-08-14T05:11:09;17.02;;;13.98;;
59876;SDS011;45749;51.140;17.184;2022-08-14T05:13:36;17.67;;;14.30;;
59876;SDS011;45749;51.140;17.184;2022-08-14T05:16:03;15.10;;;13.60;;
59876;SDS011;45749;51.140;17.184;2022-08-14T05:18:32;15.60;;;13.78;;
59876;SDS011;45749;51.140;17.184;2022-08-14T05:21:02;15.50;;;13.93;;
59876;SDS011;45749;51.140;17.184;2022-08-14T05:23:31;14.75;;;13.18;;
59876;SDS011;45749;51.140;17.184;2022-08-14T05:26:00;14.98;;;13.45;;
59876;SDS011;45749;51.140;17.184;2022-08-14T05:28:29;14.85;;;12.80;;
59876;SDS011;45749;51.140;17.184;2022-08-14T05:30:59;14.87;;;13.28;;
59876;SDS011;45749;51.140;17.184;2022-08-14T05:33:31;13.85;;;12.43;;
59876;SDS011;45749;51.140;17.184;2022-08-14T05:36:00;15.58;;;14.07;;
59876;SDS011;45749;51.140;17.184;2022-08-14T05:38:30;16.97;;;15.13;;
59876;SDS011;45749;51.140;17.184;2022-08-14T05:41:00;15.28;;;13.75;;
59876;SDS011;45749;51.140;17.184;2022-08-14T05:43:29;14.47;;;12.98;;
59876;SDS011;45749;51.140;17.184;2022-08-14T05:46:00;14.70;;;13.20;;
59876;SDS011;45749;51.140;17.184;2022-08-14T05:48:26;14.55;;;13.13;;
59876;SDS011;45749;51.140;17.184;2022-08-14T05:50:53;15.65;;;14.03;;
59876;SDS011;45749;51.140;17.184;2022-08-14T05:53:20;16.23;;;14.55;;
59876;SDS011;45749;51.140;17.184;2022-08-14T05:55:52;18.80;;;15.08;;
59876;SDS011;45749;51.140;17.184;2022-08-14T05:58:21;15.75;;;14.25;;
59876;SDS011;45749;51.140;17.184;2022-08-14T06:00:47;15.43;;;13.83;;
59876;SDS011;45749;51.140;17.184;2022-08-14T06:03:15;14.43;;;13.03;;
59876;SDS011;45749;51.140;17.184;2022-08-14T06:08:25;15.60;;;14.10;;
59876;SDS011;45749;51.140;17.184;2022-08-14T06:10:57;15.38;;;13.98;;
59876;SDS011;45749;51.140;17.184;2022-08-14T06:13:39;15.68;;;14.18;;
59876;SDS011;45749;51.140;17.184;2022-08-14T06:16:00;15.72;;;14.23;;
59876;SDS011;45749;51.140;17.184;2022-08-14T06:18:26;16.82;;;15.03;;
59876;SDS011;45749;51.140;17.184;2022-08-14T06:20:52;16.80;;;15.10;;
59876;SDS011;45749;51.140;17.184;2022-08-14T06:23:18;17.00;;;15.50;;
59876;SDS011;45749;51.140;17.184;2022-08-14T06:25:44;16.73;;;15.05;;
59876;SDS011;45749;51.140;17.184;2022-08-14T06:28:17;18.80;;;15.63;;
59876;SDS011;45749;51.140;17.184;2022-08-14T06:30:46;16.32;;;14.73;;
59876;SDS011;45749;51.140;17.184;2022-08-14T06:33:14;16.27;;;14.73;;
59876;SDS011;45749;51.140;17.184;2022-08-14T06:35:42;17.07;;;15.28;;
59876;SDS011;45749;51.140;17.184;2022-08-14T06:38:13;15.85;;;14.30;;
59876;SDS011;45749;51.140;17.184;2022-08-14T06:40:43;17.67;;;15.88;;
59876;SDS011;45749;51.140;17.184;2022-08-14T06:43:11;15.63;;;14.10;;
59876;SDS011;45749;51.140;17.184;2022-08-14T06:45:40;17.55;;;15.13;;
59876;SDS011;45749;51.140;17.184;2022-08-14T06:48:14;17.82;;;16.17;;
59876;SDS011;45749;51.140;17.184;2022-08-14T06:50:47;16.20;;;14.40;;
59876;SDS011;45749;51.140;17.184;2022-08-14T06:53:14;17.20;;;15.63;;
59876;SDS011;45749;51.140;17.184;2022-08-14T06:55:43;17.62;;;15.93;;
59876;SDS011;45749;51.140;17.184;2022-08-14T06:58:11;17.27;;;15.48;;
59876;SDS011;45749;51.140;17.184;2022-08-14T07:00:39;17.32;;;15.63;;
59876;SDS011;45749;51.140;17.184;2022-08-14T07:03:07;19.00;;;17.00;;
59876;SDS011;45749;51.140;17.184;2022-08-14T07:05:52;18.00;;;16.30;;
59876;SDS011;45749;51.140;17.184;2022-08-14T07:08:19;18.17;;;15.30;;
59876;SDS011;45749;51.140;17.184;2022-08-14T07:10:53;14.75;;;13.35;;
59876;SDS011;45749;51.140;17.184;2022-08-14T07:13:23;17.20;;;14.80;;
59876;SDS011;45749;51.140;17.184;2022-08-14T07:15:55;16.48;;;14.85;;
59876;SDS011;45749;51.140;17.184;2022-08-14T07:18:29;15.60;;;14.18;;
59876;SDS011;45749;51.140;17.184;2022-08-14T07:20:55;15.78;;;14.28;;
59876;SDS011;45749;51.140;17.184;2022-08-14T07:23:24;15.30;;;13.88;;
59876;SDS011;45749;51.140;17.184;2022-08-14T07:25:51;14.83;;;12.93;;
59876;SDS011;45749;51.140;17.184;2022-08-14T07:28:30;15.28;;;13.98;;
59876;SDS011;45749;51.140;17.184;2022-08-14T07:31:00;14.68;;;13.28;;
59876;SDS011;45749;51.140;17.184;2022-08-14T07:33:31;14.73;;;13.28;;
59876;SDS011;45749;51.140;17.184;2022-08-14T07:36:09;14.90;;;13.30;;
59876;SDS011;45749;51.140;17.184;2022-08-14T07:38:37;14.78;;;13.13;;
59876;SDS011;45749;51.140;17.184;2022-08-14T07:41:08;13.60;;;12.20;;
59876;SDS011;45749;51.140;17.184;2022-08-14T07:43:36;14.03;;;12.30;;
59876;SDS011;45749;51.140;17.184;2022-08-14T07:46:04;12.28;;;11.08;;
59876;SDS011;45749;51.140;17.184;2022-08-14T07:48:30;12.58;;;11.38;;
59876;SDS011;45749;51.140;17.184;2022-08-14T07:50:56;12.28;;;11.05;;
59876;SDS011;45749;51.140;17.184;2022-08-14T07:53:23;14.13;;;12.70;;
59876;SDS011;45749;51.140;17.184;2022-08-14T07:55:49;13.72;;;12.50;;
59876;SDS011;45749;51.140;17.184;2022-08-14T07:58:15;12.75;;;11.65;;
59876;SDS011;45749;51.140;17.184;2022-08-14T08:00:42;13.20;;;11.90;;
59876;SDS011;45749;51.140;17.184;2022-08-14T08:03:08;12.37;;;11.18;;
59876;SDS011;45749;51.140;17.184;2022-08-14T08:05:36;14.33;;;11.28;;
59876;SDS011;45749;51.140;17.184;2022-08-14T08:08:04;13.48;;;11.93;;
59876;SDS011;45749;51.140;17.184;2022-08-14T08:10:32;13.65;;;12.25;;
59876;SDS011;45749;51.140;17.184;2022-08-14T08:15:46;12.10;;;11.00;;
59876;SDS011;45749;51.140;17.184;2022-08-14T08:18:12;13.55;;;11.53;;
59876;SDS011;45749;51.140;17.184;2022-08-14T08:20:44;11.75;;;10.65;;
59876;SDS011;45749;51.140;17.184;2022-08-14T08:23:15;12.33;;;11.12;;
59876;SDS011;45749;51.140;17.184;2022-08-14T08:25:44;12.40;;;11.25;;
59876;SDS011;45749;51.140;17.184;2022-08-14T08:28:15;11.65;;;10.55;;
59876;SDS011;45749;51.140;17.184;2022-08-14T08:30:49;12.50;;;10.95;;
59876;SDS011;45749;51.140;17.184;2022-08-14T08:33:19;11.85;;;10.82;;
59876;SDS011;45749;51.140;17.184;2022-08-14T08:35:48;12.35;;;10.85;;
59876;SDS011;45749;51.140;17.184;2022-08-14T08:38:21;12.50;;;11.30;;
59876;SDS011;45749;51.140;17.184;2022-08-14T08:40:49;12.50;;;11.33;;
59876;SDS011;45749;51.140;17.184;2022-08-14T08:43:19;13.05;;;11.65;;
59876;SDS011;45749;51.140;17.184;2022-08-14T08:45:57;13.22;;;12.00;;
59876;SDS011;45749;51.140;17.184;2022-08-14T08:48:53;15.72;;;14.20;;
59876;SDS011;45749;51.140;17.184;2022-08-14T08:51:23;11.05;;;10.05;;
59876;SDS011;45749;51.140;17.184;2022-08-14T08:54:00;12.03;;;10.82;;
59876;SDS011;45749;51.140;17.184;2022-08-14T08:56:43;12.18;;;11.00;;
59876;SDS011;45749;51.140;17.184;2022-08-14T08:59:25;11.88;;;10.68;;
59876;SDS011;45749;51.140;17.184;2022-08-14T09:01:59;10.70;;;9.70;;
59876;SDS011;45749;51.140;17.184;2022-08-14T09:04:40;11.95;;;10.43;;
59876;SDS011;45749;51.140;17.184;2022-08-14T09:07:10;11.68;;;10.63;;
59876;SDS011;45749;51.140;17.184;2022-08-14T09:09:38;11.43;;;10.32;;
59876;SDS011;45749;51.140;17.184;2022-08-14T09:12:17;12.60;;;11.40;;
59876;SDS011;45749;51.140;17.184;2022-08-14T09:14:45;12.75;;;11.45;;
59876;SDS011;45749;51.140;17.184;2022-08-14T09:17:13;12.35;;;11.18;;
59876;SDS011;45749;51.140;17.184;2022-08-14T09:19:39;11.97;;;10.85;;
59876;SDS011;45749;51.140;17.184;2022-08-14T09:22:06;12.78;;;11.48;;
59876;SDS011;45749;51.140;17.184;2022-08-14T09:24:34;13.00;;;11.55;;
59876;SDS011;45749;51.140;17.184;2022-08-14T09:27:00;11.85;;;10.65;;
59876;SDS011;45749;51.140;17.184;2022-08-14T09:29:27;11.55;;;10.45;;
59876;SDS011;45749;51.140;17.184;2022-08-14T09:31:53;10.60;;;9.68;;
59876;SDS011;45749;51.140;17.184;2022-08-14T09:34:45;10.50;;;9.50;;
59876;SDS011;45749;51.140;17.184;2022-08-14T09:46:10;10.95;;;8.88;;
59876;SDS011;45749;51.140;17.184;2022-08-14T09:48:37;10.03;;;8.88;;
59876;SDS011;45749;51.140;17.184;2022-08-14T09:51:03;9.85;;;8.85;;
59876;SDS011;45749;51.140;17.184;2022-08-14T09:53:38;11.05;;;9.98;;
59876;SDS011;45749;51.140;17.184;2022-08-14T09:56:07;11.20;;;10.13;;
59876;SDS011;45749;51.140;17.184;2022-08-14T09:58:34;10.55;;;9.48;;
59876;SDS011;45749;51.140;17.184;2022-08-14T10:01:12;12.98;;;11.70;;
59876;SDS011;45749;51.140;17.184;2022-08-14T10:03:53;11.88;;;10.70;;
59876;SDS011;45749;51.140;17.184;2022-08-14T10:06:26;10.63;;;9.68;;
59876;SDS011;45749;51.140;17.184;2022-08-14T10:11:26;11.83;;;10.63;;
59876;SDS011;45749;51.140;17.184;2022-08-14T10:14:10;13.25;;;10.85;;
59876;SDS011;45749;51.140;17.184;2022-08-14T10:16:42;12.68;;;10.03;;
59876;SDS011;45749;51.140;17.184;2022-08-14T10:19:12;10.72;;;9.73;;
59876;SDS011;45749;51.140;17.184;2022-08-14T10:21:41;11.93;;;10.05;;
59876;SDS011;45749;51.140;17.184;2022-08-14T10:24:26;11.60;;;10.38;;
59876;SDS011;45749;51.140;17.184;2022-08-14T10:26:57;12.30;;;9.98;;
59876;SDS011;45749;51.140;17.184;2022-08-14T10:29:30;12.40;;;10.40;;
59876;SDS011;45749;51.140;17.184;2022-08-14T10:31:59;12.80;;;11.70;;
59876;SDS011;45749;51.140;17.184;2022-08-14T10:34:33;12.80;;;11.40;;
59876;SDS011;45749;51.140;17.184;2022-08-14T10:37:06;13.30;;;12.00;;
59876;SDS011;45749;51.140;17.184;2022-08-14T10:39:33;13.13;;;11.88;;
59876;SDS011;45749;51.140;17.184;2022-08-14T10:42:04;14.38;;;12.93;;
59876;SDS011;45749;51.140;17.184;2022-08-14T10:44:39;15.05;;;13.62;;
59876;SDS011;45749;51.140;17.184;2022-08-14T10:47:09;15.50;;;14.00;;
59876;SDS011;45749;51.140;17.184;2022-08-14T10:49:36;15.78;;;14.10;;
59876;SDS011;45749;51.140;17.184;2022-08-14T10:52:10;15.30;;;13.68;;
59876;SDS011;45749;51.140;17.184;2022-08-14T10:54:42;16.60;;;14.98;;
59876;SDS011;45749;51.140;17.184;2022-08-14T10:57:23;15.95;;;14.28;;
59876;SDS011;45749;51.140;17.184;2022-08-14T10:59:57;15.73;;;14.33;;
59876;SDS011;45749;51.140;17.184;2022-08-14T11:02:35;15.72;;;14.05;;
59876;SDS011;45749;51.140;17.184;2022-08-14T11:13:22;13.08;;;11.90;;
59876;SDS011;45749;51.140;17.184;2022-08-14T11:15:53;16.43;;;14.77;;
59876;SDS011;45749;51.140;17.184;2022-08-14T11:18:21;14.07;;;12.45;;
59876;SDS011;45749;51.140;17.184;2022-08-14T11:20:49;13.50;;;12.20;;
59876;SDS011;45749;51.140;17.184;2022-08-14T11:25:53;14.83;;;13.00;;
59876;SDS011;45749;51.140;17.184;2022-08-14T11:28:24;14.30;;;12.93;;
59876;SDS011;45749;51.140;17.184;2022-08-14T11:30:53;15.20;;;13.78;;
59876;SDS011;45749;51.140;17.184;2022-08-14T11:33:22;14.65;;;13.25;;
59876;SDS011;45749;51.140;17.184;2022-08-14T11:35:54;13.58;;;12.37;;
59876;SDS011;45749;51.140;17.184;2022-08-14T11:38:21;13.08;;;11.78;;
59876;SDS011;45749;51.140;17.184;2022-08-14T11:40:47;11.33;;;10.23;;
59876;SDS011;45749;51.140;17.184;2022-08-14T11:43:14;11.43;;;10.23;;
59876;SDS011;45749;51.140;17.184;2022-08-14T11:45:43;13.25;;;11.95;;
59876;SDS011;45749;51.140;17.184;2022-08-14T11:50:48;13.13;;;11.90;;
59876;SDS011;45749;51.140;17.184;2022-08-14T11:53:24;13.22;;;12.03;;
59876;SDS011;45749;51.140;17.184;2022-08-14T11:55:59;15.60;;;14.07;;
59876;SDS011;45749;51.140;17.184;2022-08-14T11:58:29;15.20;;;13.65;;
59876;SDS011;45749;51.140;17.184;2022-08-14T12:01:06;14.20;;;12.75;;
59876;SDS011;45749;51.140;17.184;2022-08-14T12:03:43;16.20;;;14.43;;
59876;SDS011;45749;51.140;17.184;2022-08-14T12:06:07;14.98;;;13.55;;
59876;SDS011;45749;51.140;17.184;2022-08-14T12:08:41;14.25;;;12.85;;
59876;SDS011;45749;51.140;17.184;2022-08-14T12:11:11;13.85;;;12.45;;
59876;SDS011;45749;51.140;17.184;2022-08-14T12:13:40;16.05;;;14.53;;
59876;SDS011;45749;51.140;17.184;2022-08-14T12:16:10;14.95;;;13.55;;
59876;SDS011;45749;51.140;17.184;2022-08-14T12:18:43;15.90;;;14.40;;
59876;SDS011;45749;51.140;17.184;2022-08-14T12:23:59;15.88;;;14.38;;
59876;SDS011;45749;51.140;17.184;2022-08-14T12:26:30;16.93;;;15.03;;
59876;SDS011;45749;51.140;17.184;2022-08-14T12:29:06;16.48;;;14.87;;
59876;SDS011;45749;51.140;17.184;2022-08-14T12:31:36;18.82;;;15.38;;
59876;SDS011;45749;51.140;17.184;2022-08-14T12:34:06;17.62;;;15.83;;
59876;SDS011;45749;51.140;17.184;2022-08-14T12:36:34;16.77;;;15.08;;
59876;SDS011;45749;51.140;17.184;2022-08-14T12:39:00;18.62;;;16.70;;
59876;SDS011;45749;51.140;17.184;2022-08-14T12:41:30;15.48;;;13.95;;
59876;SDS011;45749;51.140;17.184;2022-08-14T12:44:03;16.67;;;15.08;;
59876;SDS011;45749;51.140;17.184;2022-08-14T12:46:33;16.55;;;14.28;;
59876;SDS011;45749;51.140;17.184;2022-08-14T12:49:09;16.10;;;14.25;;
59876;SDS011;45749;51.140;17.184;2022-08-14T12:51:36;16.30;;;14.70;;
59876;SDS011;45749;51.140;17.184;2022-08-14T12:54:12;16.48;;;14.87;;
59876;SDS011;45749;51.140;17.184;2022-08-14T12:56:41;16.85;;;14.80;;
59876;SDS011;45749;51.140;17.184;2022-08-14T12:59:09;17.70;;;15.70;;
59876;SDS011;45749;51.140;17.184;2022-08-14T13:01:35;16.70;;;14.85;;
59876;SDS011;45749;51.140;17.184;2022-08-14T13:04:12;15.50;;;13.85;;
59876;SDS011;45749;51.140;17.184;2022-08-14T13:06:41;15.80;;;13.18;;
59876;SDS011;45749;51.140;17.184;2022-08-14T13:09:11;15.65;;;13.88;;
59876;SDS011;45749;51.140;17.184;2022-08-14T13:11:43;15.88;;;14.25;;
59876;SDS011;45749;51.140;17.184;2022-08-14T13:14:17;15.00;;;13.45;;
59876;SDS011;45749;51.140;17.184;2022-08-14T13:16:52;15.13;;;13.60;;
59876;SDS011;45749;51.140;17.184;2022-08-14T13:19:21;15.83;;;13.22;;
59876;SDS011;45749;51.140;17.184;2022-08-14T13:21:50;14.73;;;13.22;;
59876;SDS011;45749;51.140;17.184;2022-08-14T13:24:20;14.15;;;12.65;;
59876;SDS011;45749;51.140;17.184;2022-08-14T13:26:49;14.65;;;13.10;;
59876;SDS011;45749;51.140;17.184;2022-08-14T13:29:21;12.85;;;11.55;;
59876;SDS011;45749;51.140;17.184;2022-08-14T13:31:51;14.50;;;13.00;;
59876;SDS011;45749;51.140;17.184;2022-08-14T13:34:19;14.60;;;11.78;;
59876;SDS011;45749;51.140;17.184;2022-08-14T13:36:47;13.25;;;11.97;;
59876;SDS011;45749;51.140;17.184;2022-08-14T13:39:15;13.72;;;12.45;;
59876;SDS011;45749;51.140;17.184;2022-08-14T13:41:43;14.73;;;12.90;;
59876;SDS011;45749;51.140;17.184;2022-08-14T13:44:14;15.68;;;13.15;;
59876;SDS011;45749;51.140;17.184;2022-08-14T13:46:42;14.55;;;12.90;;
59876;SDS011;45749;51.140;17.184;2022-08-14T13:49:08;17.05;;;14.13;;
59876;SDS011;45749;51.140;17.184;2022-08-14T13:51:40;15.40;;;13.80;;
59876;SDS011;45749;51.140;17.184;2022-08-14T13:54:13;15.18;;;13.75;;
59876;SDS011;45749;51.140;17.184;2022-08-14T13:56:44;15.68;;;14.10;;
59876;SDS011;45749;51.140;17.184;2022-08-14T13:59:11;16.42;;;14.83;;
59876;SDS011;45749;51.140;17.184;2022-08-14T14:01:38;15.72;;;14.20;;
59876;SDS011;45749;51.140;17.184;2022-08-14T14:04:06;15.40;;;13.32;;
59876;SDS011;45749;51.140;17.184;2022-08-14T14:06:42;14.98;;;13.48;;
59876;SDS011;45749;51.140;17.184;2022-08-14T14:09:11;15.83;;;14.35;;
59876;SDS011;45749;51.140;17.184;2022-08-14T14:11:41;16.65;;;15.00;;
59876;SDS011;45749;51.140;17.184;2022-08-14T14:14:08;15.95;;;14.40;;
59876;SDS011;45749;51.140;17.184;2022-08-14T14:16:36;15.08;;;13.53;;
59876;SDS011;45749;51.140;17.184;2022-08-14T14:19:04;15.83;;;13.80;;
59876;SDS011;45749;51.140;17.184;2022-08-14T14:21:32;15.43;;;13.93;;
59876;SDS011;45749;51.140;17.184;2022-08-14T14:23:58;15.88;;;14.30;;
59876;SDS011;45749;51.140;17.184;2022-08-14T14:26:26;14.90;;;13.45;;
59876;SDS011;45749;51.140;17.184;2022-08-14T14:28:54;15.40;;;13.78;;
59876;SDS011;45749;51.140;17.184;2022-08-14T14:31:22;15.10;;;13.45;;
59876;SDS011;45749;51.140;17.184;2022-08-14T14:33:59;14.95;;;13.45;;
59876;SDS011;45749;51.140;17.184;2022-08-14T14:36:28;15.60;;;13.95;;
59876;SDS011;45749;51.140;17.184;2022-08-14T14:38:57;14.55;;;13.15;;
59876;SDS011;45749;51.140;17.184;2022-08-14T14:41:26;14.80;;;13.08;;
59876;SDS011;45749;51.140;17.184;2022-08-14T14:43:55;15.68;;;14.07;;
59876;SDS011;45749;51.140;17.184;2022-08-14T14:46:23;14.55;;;13.15;;
59876;SDS011;45749;51.140;17.184;2022-08-14T14:48:50;15.45;;;13.93;;
59876;SDS011;45749;51.140;17.184;2022-08-14T14:51:18;14.90;;;13.40;;
59876;SDS011;45749;51.140;17.184;2022-08-14T14:53:45;11.48;;;10.28;;
59876;SDS011;45749;51.140;17.184;2022-08-14T14:56:12;11.03;;;9.93;;
59876;SDS011;45749;51.140;17.184;2022-08-14T14:58:39;11.20;;;10.10;;